Aviation Digital Data Service (ADDS)

Output produced by METARs form (1506 UTC 20 March 2019)
found at http://www.aviationweather.gov/metar/data/
 
METAR text: VTSM 201430Z 14003KT 9999 FEW020 29/24 Q1012 NOSIG
Conditions at: VTSM (SAMUI , TH) observed 1430 UTC 20 March 2019
Temperature: 29.0°C (84°F)
Dewpoint: 24.0°C (75°F) [RH = 74%]
Pressure (altimeter): 29.88 inches Hg (1012.0 mb)
Winds: from the SE (140 degrees) at 3 MPH (3 knots; 1.5 m/s)
Visibility: 6 or more miles (10+ km)
Ceiling: at least 12,000 feet AGL
Clouds: few clouds at 2000 feet AGL
Weather: no significant weather observed at this time

METAR text: VTSM 201400Z 13003KT 9999 FEW020 29/24 Q1012 NOSIG
Conditions at: VTSM (SAMUI , TH) observed 1400 UTC 20 March 2019
Temperature: 29.0°C (84°F)
Dewpoint: 24.0°C (75°F) [RH = 74%]
Pressure (altimeter): 29.88 inches Hg (1012.0 mb)
Winds: from the SE (130 degrees) at 3 MPH (3 knots; 1.5 m/s)
Visibility: 6 or more miles (10+ km)
Ceiling: at least 12,000 feet AGL
Clouds: few clouds at 2000 feet AGL
Weather: no significant weather observed at this time

METAR text: VTSM 201330Z 14003KT 9999 FEW020 29/24 Q1011 NOSIG
Conditions at: VTSM (SAMUI , TH) observed 1330 UTC 20 March 2019
Temperature: 29.0°C (84°F)
Dewpoint: 24.0°C (75°F) [RH = 74%]
Pressure (altimeter): 29.85 inches Hg (1011.0 mb)
Winds: from the SE (140 degrees) at 3 MPH (3 knots; 1.5 m/s)
Visibility: 6 or more miles (10+ km)
Ceiling: at least 12,000 feet AGL
Clouds: few clouds at 2000 feet AGL
Weather: no significant weather observed at this time

METAR text: VTSM 201300Z 13004KT 9999 FEW020 29/24 Q1011 NOSIG
Conditions at: VTSM (SAMUI , TH) observed 1300 UTC 20 March 2019
Temperature: 29.0°C (84°F)
Dewpoint: 24.0°C (75°F) [RH = 74%]
Pressure (altimeter): 29.85 inches Hg (1011.0 mb)
Winds: from the SE (130 degrees) at 5 MPH (4 knots; 2.1 m/s)
Visibility: 6 or more miles (10+ km)
Ceiling: at least 12,000 feet AGL
Clouds: few clouds at 2000 feet AGL
Weather: no significant weather observed at this time

METAR text: VTSM 201230Z 14005KT 9999 FEW020 29/24 Q1010 NOSIG
Conditions at: VTSM (SAMUI , TH) observed 1230 UTC 20 March 2019
Temperature: 29.0°C (84°F)
Dewpoint: 24.0°C (75°F) [RH = 74%]
Pressure (altimeter): 29.82 inches Hg (1010.0 mb)
Winds: from the SE (140 degrees) at 6 MPH (5 knots; 2.6 m/s)
Visibility: 6 or more miles (10+ km)
Ceiling: at least 12,000 feet AGL
Clouds: few clouds at 2000 feet AGL
Weather: no significant weather observed at this time

METAR text: VTSM 201200Z 14004KT 9999 FEW020 29/24 Q1010 NOSIG
Conditions at: VTSM (SAMUI , TH) observed 1200 UTC 20 March 2019
Temperature: 29.0°C (84°F)
Dewpoint: 24.0°C (75°F) [RH = 74%]
Pressure (altimeter): 29.82 inches Hg (1010.0 mb)
Winds: from the SE (140 degrees) at 5 MPH (4 knots; 2.1 m/s)
Visibility: 6 or more miles (10+ km)
Ceiling: at least 12,000 feet AGL
Clouds: few clouds at 2000 feet AGL
Weather: no significant weather observed at this time

METAR text: VTSM 201130Z 13005KT 9999 FEW020 29/24 Q1009 NOSIG
Conditions at: VTSM (SAMUI , TH) observed 1130 UTC 20 March 2019
Temperature: 29.0°C (84°F)
Dewpoint: 24.0°C (75°F) [RH = 74%]
Pressure (altimeter): 29.79 inches Hg (1009.0 mb)
Winds: from the SE (130 degrees) at 6 MPH (5 knots; 2.6 m/s)
Visibility: 6 or more miles (10+ km)
Ceiling: at least 12,000 feet AGL
Clouds: few clouds at 2000 feet AGL
Weather: no significant weather observed at this time

METAR text: VTSM 201100Z 15006KT 9999 FEW020 30/23 Q1009 NOSIG
Conditions at: VTSM (SAMUI , TH) observed 1100 UTC 20 March 2019
Temperature: 30.0°C (86°F)
Dewpoint: 23.0°C (73°F) [RH = 66%]
Pressure (altimeter): 29.79 inches Hg (1009.0 mb)
Winds: from the SSE (150 degrees) at 7 MPH (6 knots; 3.1 m/s)
Visibility: 6 or more miles (10+ km)
Ceiling: at least 12,000 feet AGL
Clouds: few clouds at 2000 feet AGL
Weather: no significant weather observed at this time

METAR text: VTSM 201030Z 14006KT 100V170 9999 FEW020 30/24 Q1009 NOSIG
Conditions at: VTSM (SAMUI , TH) observed 1030 UTC 20 March 2019
Temperature: 30.0°C (86°F)
Dewpoint: 24.0°C (75°F) [RH = 70%]
Pressure (altimeter): 29.79 inches Hg (1009.0 mb)
Winds: from the SE (140 degrees) at 7 MPH (6 knots; 3.1 m/s)
Visibility: 6 or more miles (10+ km)
Ceiling: at least 12,000 feet AGL
Clouds: few clouds at 2000 feet AGL
Weather: no significant weather observed at this time

METAR text: VTSM 201000Z 14006KT 9999 FEW020 31/23 Q1009 NOSIG
Conditions at: VTSM (SAMUI , TH) observed 1000 UTC 20 March 2019
Temperature: 31.0°C (88°F)
Dewpoint: 23.0°C (73°F) [RH = 63%]
Pressure (altimeter): 29.79 inches Hg (1009.0 mb)
Winds: from the SE (140 degrees) at 7 MPH (6 knots; 3.1 m/s)
Visibility: 6 or more miles (10+ km)
Ceiling: at least 12,000 feet AGL
Clouds: few clouds at 2000 feet AGL
Weather: no significant weather observed at this time

METAR text: VTSM 200930Z 14007KT 090V180 9999 FEW020 31/25 Q1009 NOSIG
Conditions at: VTSM (SAMUI , TH) observed 0930 UTC 20 March 2019
Temperature: 31.0°C (88°F)
Dewpoint: 25.0°C (77°F) [RH = 71%]
Pressure (altimeter): 29.79 inches Hg (1009.0 mb)
Winds: from the SE (140 degrees) at 8 MPH (7 knots; 3.6 m/s)
Visibility: 6 or more miles (10+ km)
Ceiling: at least 12,000 feet AGL
Clouds: few clouds at 2000 feet AGL
Weather: no significant weather observed at this time

METAR text: VTSM 200900Z 15008KT 120V180 9999 FEW020 31/24 Q1009 NOSIG
Conditions at: VTSM (SAMUI , TH) observed 0900 UTC 20 March 2019
Temperature: 31.0°C (88°F)
Dewpoint: 24.0°C (75°F) [RH = 66%]
Pressure (altimeter): 29.79 inches Hg (1009.0 mb)
Winds: from the SSE (150 degrees) at 9 MPH (8 knots; 4.1 m/s)
Visibility: 6 or more miles (10+ km)
Ceiling: at least 12,000 feet AGL
Clouds: few clouds at 2000 feet AGL
Weather: no significant weather observed at this time

METAR text: VTSM 200830Z 14007KT 100V180 9999 FEW020 31/23 Q1010 NOSIG
Conditions at: VTSM (SAMUI , TH) observed 0830 UTC 20 March 2019
Temperature: 31.0°C (88°F)
Dewpoint: 23.0°C (73°F) [RH = 63%]
Pressure (altimeter): 29.82 inches Hg (1010.0 mb)
Winds: from the SE (140 degrees) at 8 MPH (7 knots; 3.6 m/s)
Visibility: 6 or more miles (10+ km)
Ceiling: at least 12,000 feet AGL
Clouds: few clouds at 2000 feet AGL
Weather: no significant weather observed at this time

METAR text: VTSM 200800Z 13008KT 9999 FEW020 31/23 Q1010 NOSIG
Conditions at: VTSM (SAMUI , TH) observed 0800 UTC 20 March 2019
Temperature: 31.0°C (88°F)
Dewpoint: 23.0°C (73°F) [RH = 63%]
Pressure (altimeter): 29.82 inches Hg (1010.0 mb)
Winds: from the SE (130 degrees) at 9 MPH (8 knots; 4.1 m/s)
Visibility: 6 or more miles (10+ km)
Ceiling: at least 12,000 feet AGL
Clouds: few clouds at 2000 feet AGL
Weather: no significant weather observed at this time

METAR text: VTSM 200730Z 15009KT 120V180 9999 FEW020 32/24 Q1011 NOSIG
Conditions at: VTSM (SAMUI , TH) observed 0730 UTC 20 March 2019
Temperature: 32.0°C (90°F)
Dewpoint: 24.0°C (75°F) [RH = 63%]
Pressure (altimeter): 29.85 inches Hg (1011.0 mb)
Winds: from the SSE (150 degrees) at 10 MPH (9 knots; 4.6 m/s)
Visibility: 6 or more miles (10+ km)
Ceiling: at least 12,000 feet AGL
Clouds: few clouds at 2000 feet AGL
Weather: no significant weather observed at this time

METAR text: VTSM 200700Z 15008KT 090V170 9999 FEW020 32/24 Q1011 NOSIG
Conditions at: VTSM (SAMUI , TH) observed 0700 UTC 20 March 2019
Temperature: 32.0°C (90°F)
Dewpoint: 24.0°C (75°F) [RH = 63%]
Pressure (altimeter): 29.85 inches Hg (1011.0 mb)
Winds: from the SSE (150 degrees) at 9 MPH (8 knots; 4.1 m/s)
Visibility: 6 or more miles (10+ km)
Ceiling: at least 12,000 feet AGL
Clouds: few clouds at 2000 feet AGL
Weather: no significant weather observed at this time

METAR text: VTSM 200630Z 13009KT 9999 FEW020 32/24 Q1012 NOSIG
Conditions at: VTSM (SAMUI , TH) observed 0630 UTC 20 March 2019
Temperature: 32.0°C (90°F)
Dewpoint: 24.0°C (75°F) [RH = 63%]
Pressure (altimeter): 29.88 inches Hg (1012.0 mb)
Winds: from the SE (130 degrees) at 10 MPH (9 knots; 4.6 m/s)
Visibility: 6 or more miles (10+ km)
Ceiling: at least 12,000 feet AGL
Clouds: few clouds at 2000 feet AGL
Weather: no significant weather observed at this time

METAR text: VTSM 200600Z 16008KT 9999 FEW020 31/24 Q1012 NOSIG
Conditions at: VTSM (SAMUI , TH) observed 0600 UTC 20 March 2019
Temperature: 31.0°C (88°F)
Dewpoint: 24.0°C (75°F) [RH = 66%]
Pressure (altimeter): 29.88 inches Hg (1012.0 mb)
Winds: from the SSE (160 degrees) at 9 MPH (8 knots; 4.1 m/s)
Visibility: 6 or more miles (10+ km)
Ceiling: at least 12,000 feet AGL
Clouds: few clouds at 2000 feet AGL
Weather: no significant weather observed at this time

METAR text: VTSM 200530Z 15009KT 9999 FEW020 32/24 Q1013 NOSIG
Conditions at: VTSM (SAMUI , TH) observed 0530 UTC 20 March 2019
Temperature: 32.0°C (90°F)
Dewpoint: 24.0°C (75°F) [RH = 63%]
Pressure (altimeter): 29.91 inches Hg (1013.0 mb)
Winds: from the SSE (150 degrees) at 10 MPH (9 knots; 4.6 m/s)
Visibility: 6 or more miles (10+ km)
Ceiling: at least 12,000 feet AGL
Clouds: few clouds at 2000 feet AGL
Weather: no significant weather observed at this time

METAR text: VTSM 200500Z 16009KT 9999 FEW020 32/24 Q1013 NOSIG
Conditions at: VTSM (SAMUI , TH) observed 0500 UTC 20 March 2019
Temperature: 32.0°C (90°F)
Dewpoint: 24.0°C (75°F) [RH = 63%]
Pressure (altimeter): 29.91 inches Hg (1013.0 mb)
Winds: from the SSE (160 degrees) at 10 MPH (9 knots; 4.6 m/s)
Visibility: 6 or more miles (10+ km)
Ceiling: at least 12,000 feet AGL
Clouds: few clouds at 2000 feet AGL
Weather: no significant weather observed at this time

METAR text: VTSM 200430Z 16010KT 9999 FEW020 32/24 Q1014 NOSIG
Conditions at: VTSM (SAMUI , TH) observed 0430 UTC 20 March 2019
Temperature: 32.0°C (90°F)
Dewpoint: 24.0°C (75°F) [RH = 63%]
Pressure (altimeter): 29.94 inches Hg (1014.0 mb)
Winds: from the SSE (160 degrees) at 12 MPH (10 knots; 5.1 m/s)
Visibility: 6 or more miles (10+ km)
Ceiling: at least 12,000 feet AGL
Clouds: few clouds at 2000 feet AGL
Weather: no significant weather observed at this time

METAR text: VTSM 200400Z 15009KT 9999 FEW020 32/24 Q1014 NOSIG
Conditions at: VTSM (SAMUI , TH) observed 0400 UTC 20 March 2019
Temperature: 32.0°C (90°F)
Dewpoint: 24.0°C (75°F) [RH = 63%]
Pressure (altimeter): 29.94 inches Hg (1014.0 mb)
Winds: from the SSE (150 degrees) at 10 MPH (9 knots; 4.6 m/s)
Visibility: 6 or more miles (10+ km)
Ceiling: at least 12,000 feet AGL
Clouds: few clouds at 2000 feet AGL
Weather: no significant weather observed at this time

METAR text: VTSM 200330Z 15009KT 9999 FEW020 32/25 Q1014 NOSIG
Conditions at: VTSM (SAMUI , TH) observed 0330 UTC 20 March 2019
Temperature: 32.0°C (90°F)
Dewpoint: 25.0°C (77°F) [RH = 67%]
Pressure (altimeter): 29.94 inches Hg (1014.0 mb)
Winds: from the SSE (150 degrees) at 10 MPH (9 knots; 4.6 m/s)
Visibility: 6 or more miles (10+ km)
Ceiling: at least 12,000 feet AGL
Clouds: few clouds at 2000 feet AGL
Weather: no significant weather observed at this time

METAR text: VTSM 200300Z 14008KT 9999 FEW020 31/24 Q1014 NOSIG
Conditions at: VTSM (SAMUI , TH) observed 0300 UTC 20 March 2019
Temperature: 31.0°C (88°F)
Dewpoint: 24.0°C (75°F) [RH = 66%]
Pressure (altimeter): 29.94 inches Hg (1014.0 mb)
Winds: from the SE (140 degrees) at 9 MPH (8 knots; 4.1 m/s)
Visibility: 6 or more miles (10+ km)
Ceiling: at least 12,000 feet AGL
Clouds: few clouds at 2000 feet AGL
Weather: no significant weather observed at this time

METAR text: VTSM 200230Z 15008KT 9999 FEW020 31/24 Q1013 NOSIG
Conditions at: VTSM (SAMUI , TH) observed 0230 UTC 20 March 2019
Temperature: 31.0°C (88°F)
Dewpoint: 24.0°C (75°F) [RH = 66%]
Pressure (altimeter): 29.91 inches Hg (1013.0 mb)
Winds: from the SSE (150 degrees) at 9 MPH (8 knots; 4.1 m/s)
Visibility: 6 or more miles (10+ km)
Ceiling: at least 12,000 feet AGL
Clouds: few clouds at 2000 feet AGL
Weather: no significant weather observed at this time

METAR text: VTSM 200200Z 15009KT 9999 FEW020 31/24 Q1013 NOSIG
Conditions at: VTSM (SAMUI , TH) observed 0200 UTC 20 March 2019
Temperature: 31.0°C (88°F)
Dewpoint: 24.0°C (75°F) [RH = 66%]
Pressure (altimeter): 29.91 inches Hg (1013.0 mb)
Winds: from the SSE (150 degrees) at 10 MPH (9 knots; 4.6 m/s)
Visibility: 6 or more miles (10+ km)
Ceiling: at least 12,000 feet AGL
Clouds: few clouds at 2000 feet AGL
Weather: no significant weather observed at this time

METAR text: VTSM 200130Z 14008KT 9999 FEW020 30/24 Q1013 NOSIG
Conditions at: VTSM (SAMUI , TH) observed 0130 UTC 20 March 2019
Temperature: 30.0°C (86°F)
Dewpoint: 24.0°C (75°F) [RH = 70%]
Pressure (altimeter): 29.91 inches Hg (1013.0 mb)
Winds: from the SE (140 degrees) at 9 MPH (8 knots; 4.1 m/s)
Visibility: 6 or more miles (10+ km)
Ceiling: at least 12,000 feet AGL
Clouds: few clouds at 2000 feet AGL
Weather: no significant weather observed at this time

METAR text: VTSM 200100Z 15008KT 9999 FEW020 30/24 Q1012 NOSIG
Conditions at: VTSM (SAMUI , TH) observed 0100 UTC 20 March 2019
Temperature: 30.0°C (86°F)
Dewpoint: 24.0°C (75°F) [RH = 70%]
Pressure (altimeter): 29.88 inches Hg (1012.0 mb)
Winds: from the SSE (150 degrees) at 9 MPH (8 knots; 4.1 m/s)
Visibility: 6 or more miles (10+ km)
Ceiling: at least 12,000 feet AGL
Clouds: few clouds at 2000 feet AGL
Weather: no significant weather observed at this time

METAR text: VTSM 200030Z 15005KT 9999 FEW020 29/24 Q1012 NOSIG
Conditions at: VTSM (SAMUI , TH) observed 0030 UTC 20 March 2019
Temperature: 29.0°C (84°F)
Dewpoint: 24.0°C (75°F) [RH = 74%]
Pressure (altimeter): 29.88 inches Hg (1012.0 mb)
Winds: from the SSE (150 degrees) at 6 MPH (5 knots; 2.6 m/s)
Visibility: 6 or more miles (10+ km)
Ceiling: at least 12,000 feet AGL
Clouds: few clouds at 2000 feet AGL
Weather: no significant weather observed at this time

METAR text: VTSM 200000Z 14005KT 9999 FEW020 28/24 Q1011 NOSIG
Conditions at: VTSM (SAMUI , TH) observed 0000 UTC 20 March 2019
Temperature: 28.0°C (82°F)
Dewpoint: 24.0°C (75°F) [RH = 79%]
Pressure (altimeter): 29.85 inches Hg (1011.0 mb)
Winds: from the SE (140 degrees) at 6 MPH (5 knots; 2.6 m/s)
Visibility: 6 or more miles (10+ km)
Ceiling: at least 12,000 feet AGL
Clouds: few clouds at 2000 feet AGL
Weather: no significant weather observed at this time

METAR text: VTSM 192330Z 15006KT 9999 FEW020 28/24 Q1011 NOSIG
Conditions at: VTSM (SAMUI , TH) observed 2330 UTC 19 March 2019
Temperature: 28.0°C (82°F)
Dewpoint: 24.0°C (75°F) [RH = 79%]
Pressure (altimeter): 29.85 inches Hg (1011.0 mb)
Winds: from the SSE (150 degrees) at 7 MPH (6 knots; 3.1 m/s)
Visibility: 6 or more miles (10+ km)
Ceiling: at least 12,000 feet AGL
Clouds: few clouds at 2000 feet AGL
Weather: no significant weather observed at this time

METAR text: VTSM 192300Z 15005KT 9999 FEW020 28/24 Q1011 NOSIG
Conditions at: VTSM (SAMUI , TH) observed 2300 UTC 19 March 2019
Temperature: 28.0°C (82°F)
Dewpoint: 24.0°C (75°F) [RH = 79%]
Pressure (altimeter): 29.85 inches Hg (1011.0 mb)
Winds: from the SSE (150 degrees) at 6 MPH (5 knots; 2.6 m/s)
Visibility: 6 or more miles (10+ km)
Ceiling: at least 12,000 feet AGL
Clouds: few clouds at 2000 feet AGL
Weather: no significant weather observed at this time

METAR text: VTSM 192230Z 14005KT 9999 FEW020 28/24 Q1010 NOSIG
Conditions at: VTSM (SAMUI , TH) observed 2230 UTC 19 March 2019
Temperature: 28.0°C (82°F)
Dewpoint: 24.0°C (75°F) [RH = 79%]
Pressure (altimeter): 29.82 inches Hg (1010.0 mb)
Winds: from the SE (140 degrees) at 6 MPH (5 knots; 2.6 m/s)
Visibility: 6 or more miles (10+ km)
Ceiling: at least 12,000 feet AGL
Clouds: few clouds at 2000 feet AGL
Weather: no significant weather observed at this time

METAR text: VTSM 192200Z 15005KT 9999 FEW020 28/24 Q1010 NOSIG
Conditions at: VTSM (SAMUI , TH) observed 2200 UTC 19 March 2019
Temperature: 28.0°C (82°F)
Dewpoint: 24.0°C (75°F) [RH = 79%]
Pressure (altimeter): 29.82 inches Hg (1010.0 mb)
Winds: from the SSE (150 degrees) at 6 MPH (5 knots; 2.6 m/s)
Visibility: 6 or more miles (10+ km)
Ceiling: at least 12,000 feet AGL
Clouds: few clouds at 2000 feet AGL
Weather: no significant weather observed at this time

METAR text: VTSM 191730Z 14006KT 9000 FEW020 29/24 Q1011 NOSIG
Conditions at: VTSM (SAMUI , TH) observed 1730 UTC 19 March 2019
Temperature: 29.0°C (84°F)
Dewpoint: 24.0°C (75°F) [RH = 74%]
Pressure (altimeter): 29.85 inches Hg (1011.0 mb)
Winds: from the SE (140 degrees) at 7 MPH (6 knots; 3.1 m/s)
Visibility: 6 miles ( 9 km)
Ceiling: at least 12,000 feet AGL
Clouds: few clouds at 2000 feet AGL
Weather: no significant weather observed at this time

METAR text: VTSM 191700Z 15007KT 9000 FEW020 29/24 Q1012 NOSIG
Conditions at: VTSM (SAMUI , TH) observed 1700 UTC 19 March 2019
Temperature: 29.0°C (84°F)
Dewpoint: 24.0°C (75°F) [RH = 74%]
Pressure (altimeter): 29.88 inches Hg (1012.0 mb)
Winds: from the SSE (150 degrees) at 8 MPH (7 knots; 3.6 m/s)
Visibility: 6 miles ( 9 km)
Ceiling: at least 12,000 feet AGL
Clouds: few clouds at 2000 feet AGL
Weather: no significant weather observed at this time

METAR text: VTSM 191630Z 14006KT 9000 FEW020 29/25 Q1012 NOSIG
Conditions at: VTSM (SAMUI , TH) observed 1630 UTC 19 March 2019
Temperature: 29.0°C (84°F)
Dewpoint: 25.0°C (77°F) [RH = 79%]
Pressure (altimeter): 29.88 inches Hg (1012.0 mb)
Winds: from the SE (140 degrees) at 7 MPH (6 knots; 3.1 m/s)
Visibility: 6 miles ( 9 km)
Ceiling: at least 12,000 feet AGL
Clouds: few clouds at 2000 feet AGL
Weather: no significant weather observed at this time

METAR text: VTSM 191600Z 12005KT 9000 FEW020 29/25 Q1012 NOSIG
Conditions at: VTSM (SAMUI , TH) observed 1600 UTC 19 March 2019
Temperature: 29.0°C (84°F)
Dewpoint: 25.0°C (77°F) [RH = 79%]
Pressure (altimeter): 29.88 inches Hg (1012.0 mb)
Winds: from the ESE (120 degrees) at 6 MPH (5 knots; 2.6 m/s)
Visibility: 6 miles ( 9 km)
Ceiling: at least 12,000 feet AGL
Clouds: few clouds at 2000 feet AGL
Weather: no significant weather observed at this time

METAR text: VTSM 191530Z 13004KT 9000 FEW020 29/24 Q1012 NOSIG
Conditions at: VTSM (SAMUI , TH) observed 1530 UTC 19 March 2019
Temperature: 29.0°C (84°F)
Dewpoint: 24.0°C (75°F) [RH = 74%]
Pressure (altimeter): 29.88 inches Hg (1012.0 mb)
Winds: from the SE (130 degrees) at 5 MPH (4 knots; 2.1 m/s)
Visibility: 6 miles ( 9 km)
Ceiling: at least 12,000 feet AGL
Clouds: few clouds at 2000 feet AGL
Weather: no significant weather observed at this time

METAR text: VTSM 191500Z 15006KT 9000 FEW020 29/25 Q1012 NOSIG
Conditions at: VTSM (SAMUI , TH) observed 1500 UTC 19 March 2019
Temperature: 29.0°C (84°F)
Dewpoint: 25.0°C (77°F) [RH = 79%]
Pressure (altimeter): 29.88 inches Hg (1012.0 mb)
Winds: from the SSE (150 degrees) at 7 MPH (6 knots; 3.1 m/s)
Visibility: 6 miles ( 9 km)
Ceiling: at least 12,000 feet AGL
Clouds: few clouds at 2000 feet AGL
Weather: no significant weather observed at this time

METAR text: VTSM 191430Z 12004KT 090V180 9000 FEW020 29/25 Q1012 NOSIG
Conditions at: VTSM (SAMUI , TH) observed 1430 UTC 19 March 2019
Temperature: 29.0°C (84°F)
Dewpoint: 25.0°C (77°F) [RH = 79%]
Pressure (altimeter): 29.88 inches Hg (1012.0 mb)
Winds: from the ESE (120 degrees) at 5 MPH (4 knots; 2.1 m/s)
Visibility: 6 miles ( 9 km)
Ceiling: at least 12,000 feet AGL
Clouds: few clouds at 2000 feet AGL
Weather: no significant weather observed at this time

METAR text: VTSM 191400Z 14005KT 9000 FEW020 29/25 Q1011 NOSIG
Conditions at: VTSM (SAMUI , TH) observed 1400 UTC 19 March 2019
Temperature: 29.0°C (84°F)
Dewpoint: 25.0°C (77°F) [RH = 79%]
Pressure (altimeter): 29.85 inches Hg (1011.0 mb)
Winds: from the SE (140 degrees) at 6 MPH (5 knots; 2.6 m/s)
Visibility: 6 miles ( 9 km)
Ceiling: at least 12,000 feet AGL
Clouds: few clouds at 2000 feet AGL
Weather: no significant weather observed at this time

METAR text: VTSM 191330Z 13005KT 9000 FEW020 29/25 Q1011 NOSIG
Conditions at: VTSM (SAMUI , TH) observed 1330 UTC 19 March 2019
Temperature: 29.0°C (84°F)
Dewpoint: 25.0°C (77°F) [RH = 79%]
Pressure (altimeter): 29.85 inches Hg (1011.0 mb)
Winds: from the SE (130 degrees) at 6 MPH (5 knots; 2.6 m/s)
Visibility: 6 miles ( 9 km)
Ceiling: at least 12,000 feet AGL
Clouds: few clouds at 2000 feet AGL
Weather: no significant weather observed at this time

METAR text: VTSM 191300Z 14007KT 9000 FEW020 29/24 Q1010 NOSIG
Conditions at: VTSM (SAMUI , TH) observed 1300 UTC 19 March 2019
Temperature: 29.0°C (84°F)
Dewpoint: 24.0°C (75°F) [RH = 74%]
Pressure (altimeter): 29.82 inches Hg (1010.0 mb)
Winds: from the SE (140 degrees) at 8 MPH (7 knots; 3.6 m/s)
Visibility: 6 miles ( 9 km)
Ceiling: at least 12,000 feet AGL
Clouds: few clouds at 2000 feet AGL
Weather: no significant weather observed at this time

METAR text: VTSM 191230Z 15005KT 9000 FEW020 29/25 Q1010 NOSIG
Conditions at: VTSM (SAMUI , TH) observed 1230 UTC 19 March 2019
Temperature: 29.0°C (84°F)
Dewpoint: 25.0°C (77°F) [RH = 79%]
Pressure (altimeter): 29.82 inches Hg (1010.0 mb)
Winds: from the SSE (150 degrees) at 6 MPH (5 knots; 2.6 m/s)
Visibility: 6 miles ( 9 km)
Ceiling: at least 12,000 feet AGL
Clouds: few clouds at 2000 feet AGL
Weather: no significant weather observed at this time

METAR text: VTSM 191200Z 14006KT 9000 FEW020 29/25 Q1009 NOSIG
Conditions at: VTSM (SAMUI , TH) observed 1200 UTC 19 March 2019
Temperature: 29.0°C (84°F)
Dewpoint: 25.0°C (77°F) [RH = 79%]
Pressure (altimeter): 29.79 inches Hg (1009.0 mb)
Winds: from the SE (140 degrees) at 7 MPH (6 knots; 3.1 m/s)
Visibility: 6 miles ( 9 km)
Ceiling: at least 12,000 feet AGL
Clouds: few clouds at 2000 feet AGL
Weather: no significant weather observed at this time

METAR text: VTSM 191130Z 15006KT 9000 FEW020 30/25 Q1009 NOSIG
Conditions at: VTSM (SAMUI , TH) observed 1130 UTC 19 March 2019
Temperature: 30.0°C (86°F)
Dewpoint: 25.0°C (77°F) [RH = 75%]
Pressure (altimeter): 29.79 inches Hg (1009.0 mb)
Winds: from the SSE (150 degrees) at 7 MPH (6 knots; 3.1 m/s)
Visibility: 6 miles ( 9 km)
Ceiling: at least 12,000 feet AGL
Clouds: few clouds at 2000 feet AGL
Weather: no significant weather observed at this time

METAR text: VTSM 191100Z 13005KT 9000 FEW020 30/24 Q1009 NOSIG
Conditions at: VTSM (SAMUI , TH) observed 1100 UTC 19 March 2019
Temperature: 30.0°C (86°F)
Dewpoint: 24.0°C (75°F) [RH = 70%]
Pressure (altimeter): 29.79 inches Hg (1009.0 mb)
Winds: from the SE (130 degrees) at 6 MPH (5 knots; 2.6 m/s)
Visibility: 6 miles ( 9 km)
Ceiling: at least 12,000 feet AGL
Clouds: few clouds at 2000 feet AGL
Weather: no significant weather observed at this time

METAR text: VTSM 191030Z 14006KT 9000 FEW020 31/24 Q1009 NOSIG
Conditions at: VTSM (SAMUI , TH) observed 1030 UTC 19 March 2019
Temperature: 31.0°C (88°F)
Dewpoint: 24.0°C (75°F) [RH = 66%]
Pressure (altimeter): 29.79 inches Hg (1009.0 mb)
Winds: from the SE (140 degrees) at 7 MPH (6 knots; 3.1 m/s)
Visibility: 6 miles ( 9 km)
Ceiling: at least 12,000 feet AGL
Clouds: few clouds at 2000 feet AGL
Weather: no significant weather observed at this time

METAR text: VTSM 191000Z 15006KT 9000 FEW020 31/25 Q1009 NOSIG
Conditions at: VTSM (SAMUI , TH) observed 1000 UTC 19 March 2019
Temperature: 31.0°C (88°F)
Dewpoint: 25.0°C (77°F) [RH = 71%]
Pressure (altimeter): 29.79 inches Hg (1009.0 mb)
Winds: from the SSE (150 degrees) at 7 MPH (6 knots; 3.1 m/s)
Visibility: 6 miles ( 9 km)
Ceiling: at least 12,000 feet AGL
Clouds: few clouds at 2000 feet AGL
Weather: no significant weather observed at this time

METAR text: VTSM 190930Z 16007KT 9000 FEW020 31/24 Q1009 NOSIG
Conditions at: VTSM (SAMUI , TH) observed 0930 UTC 19 March 2019
Temperature: 31.0°C (88°F)
Dewpoint: 24.0°C (75°F) [RH = 66%]
Pressure (altimeter): 29.79 inches Hg (1009.0 mb)
Winds: from the SSE (160 degrees) at 8 MPH (7 knots; 3.6 m/s)
Visibility: 6 miles ( 9 km)
Ceiling: at least 12,000 feet AGL
Clouds: few clouds at 2000 feet AGL
Weather: no significant weather observed at this time

METAR text: VTSM 190900Z 14008KT 9000 FEW020 31/25 Q1009 NOSIG
Conditions at: VTSM (SAMUI , TH) observed 0900 UTC 19 March 2019
Temperature: 31.0°C (88°F)
Dewpoint: 25.0°C (77°F) [RH = 71%]
Pressure (altimeter): 29.79 inches Hg (1009.0 mb)
Winds: from the SE (140 degrees) at 9 MPH (8 knots; 4.1 m/s)
Visibility: 6 miles ( 9 km)
Ceiling: at least 12,000 feet AGL
Clouds: few clouds at 2000 feet AGL
Weather: no significant weather observed at this time

METAR text: VTSM 190830Z 16009KT 120V190 9000 FEW020 31/24 Q1009 NOSIG
Conditions at: VTSM (SAMUI , TH) observed 0830 UTC 19 March 2019
Temperature: 31.0°C (88°F)
Dewpoint: 24.0°C (75°F) [RH = 66%]
Pressure (altimeter): 29.79 inches Hg (1009.0 mb)
Winds: from the SSE (160 degrees) at 10 MPH (9 knots; 4.6 m/s)
Visibility: 6 miles ( 9 km)
Ceiling: at least 12,000 feet AGL
Clouds: few clouds at 2000 feet AGL
Weather: no significant weather observed at this time

METAR text: VTSM 190800Z 15010KT 120V180 9000 FEW020 31/25 Q1010 NOSIG
Conditions at: VTSM (SAMUI , TH) observed 0800 UTC 19 March 2019
Temperature: 31.0°C (88°F)
Dewpoint: 25.0°C (77°F) [RH = 71%]
Pressure (altimeter): 29.82 inches Hg (1010.0 mb)
Winds: from the SSE (150 degrees) at 12 MPH (10 knots; 5.1 m/s)
Visibility: 6 miles ( 9 km)
Ceiling: at least 12,000 feet AGL
Clouds: few clouds at 2000 feet AGL
Weather: no significant weather observed at this time

METAR text: VTSM 190730Z 17009KT 9000 FEW020 32/25 Q1010 NOSIG
Conditions at: VTSM (SAMUI , TH) observed 0730 UTC 19 March 2019
Temperature: 32.0°C (90°F)
Dewpoint: 25.0°C (77°F) [RH = 67%]
Pressure (altimeter): 29.82 inches Hg (1010.0 mb)
Winds: from the S (170 degrees) at 10 MPH (9 knots; 4.6 m/s)
Visibility: 6 miles ( 9 km)
Ceiling: at least 12,000 feet AGL
Clouds: few clouds at 2000 feet AGL
Weather: no significant weather observed at this time

METAR text: VTSM 190700Z 16009KT 8000 FEW020 32/25 Q1011 NOSIG
Conditions at: VTSM (SAMUI , TH) observed 0700 UTC 19 March 2019
Temperature: 32.0°C (90°F)
Dewpoint: 25.0°C (77°F) [RH = 67%]
Pressure (altimeter): 29.85 inches Hg (1011.0 mb)
Winds: from the SSE (160 degrees) at 10 MPH (9 knots; 4.6 m/s)
Visibility: 5 miles ( 8 km)
Ceiling: at least 12,000 feet AGL
Clouds: few clouds at 2000 feet AGL
Weather: no significant weather observed at this time

METAR text: VTSM 190630Z 17009KT 120V190 8000 FEW020 31/25 Q1011 NOSIG
Conditions at: VTSM (SAMUI , TH) observed 0630 UTC 19 March 2019
Temperature: 31.0°C (88°F)
Dewpoint: 25.0°C (77°F) [RH = 71%]
Pressure (altimeter): 29.85 inches Hg (1011.0 mb)
Winds: from the S (170 degrees) at 10 MPH (9 knots; 4.6 m/s)
Visibility: 5 miles ( 8 km)
Ceiling: at least 12,000 feet AGL
Clouds: few clouds at 2000 feet AGL
Weather: no significant weather observed at this time

METAR text: VTSM 190600Z 16009KT 8000 FEW020 31/25 Q1012 NOSIG
Conditions at: VTSM (SAMUI , TH) observed 0600 UTC 19 March 2019
Temperature: 31.0°C (88°F)
Dewpoint: 25.0°C (77°F) [RH = 71%]
Pressure (altimeter): 29.88 inches Hg (1012.0 mb)
Winds: from the SSE (160 degrees) at 10 MPH (9 knots; 4.6 m/s)
Visibility: 5 miles ( 8 km)
Ceiling: at least 12,000 feet AGL
Clouds: few clouds at 2000 feet AGL
Weather: no significant weather observed at this time

METAR text: VTSM 190530Z 17008KT 8000 FEW020 31/25 Q1012 NOSIG
Conditions at: VTSM (SAMUI , TH) observed 0530 UTC 19 March 2019
Temperature: 31.0°C (88°F)
Dewpoint: 25.0°C (77°F) [RH = 71%]
Pressure (altimeter): 29.88 inches Hg (1012.0 mb)
Winds: from the S (170 degrees) at 9 MPH (8 knots; 4.1 m/s)
Visibility: 5 miles ( 8 km)
Ceiling: at least 12,000 feet AGL
Clouds: few clouds at 2000 feet AGL
Weather: no significant weather observed at this time

METAR text: VTSM 190500Z 16008KT 110V190 8000 FEW020 31/25 Q1013 NOSIG
Conditions at: VTSM (SAMUI , TH) observed 0500 UTC 19 March 2019
Temperature: 31.0°C (88°F)
Dewpoint: 25.0°C (77°F) [RH = 71%]
Pressure (altimeter): 29.91 inches Hg (1013.0 mb)
Winds: from the SSE (160 degrees) at 9 MPH (8 knots; 4.1 m/s)
Visibility: 5 miles ( 8 km)
Ceiling: at least 12,000 feet AGL
Clouds: few clouds at 2000 feet AGL
Weather: no significant weather observed at this time

METAR text: VTSM 190430Z 16009KT 8000 FEW020 31/25 Q1013 NOSIG
Conditions at: VTSM (SAMUI , TH) observed 0430 UTC 19 March 2019
Temperature: 31.0°C (88°F)
Dewpoint: 25.0°C (77°F) [RH = 71%]
Pressure (altimeter): 29.91 inches Hg (1013.0 mb)
Winds: from the SSE (160 degrees) at 10 MPH (9 knots; 4.6 m/s)
Visibility: 5 miles ( 8 km)
Ceiling: at least 12,000 feet AGL
Clouds: few clouds at 2000 feet AGL
Weather: no significant weather observed at this time

METAR text: VTSM 190400Z 14008KT 8000 FEW020 31/24 Q1014 NOSIG
Conditions at: VTSM (SAMUI , TH) observed 0400 UTC 19 March 2019
Temperature: 31.0°C (88°F)
Dewpoint: 24.0°C (75°F) [RH = 66%]
Pressure (altimeter): 29.94 inches Hg (1014.0 mb)
Winds: from the SE (140 degrees) at 9 MPH (8 knots; 4.1 m/s)
Visibility: 5 miles ( 8 km)
Ceiling: at least 12,000 feet AGL
Clouds: few clouds at 2000 feet AGL
Weather: no significant weather observed at this time

METAR text: VTSM 190330Z 15009KT 8000 FEW020 31/25 Q1014 NOSIG
Conditions at: VTSM (SAMUI , TH) observed 0330 UTC 19 March 2019
Temperature: 31.0°C (88°F)
Dewpoint: 25.0°C (77°F) [RH = 71%]
Pressure (altimeter): 29.94 inches Hg (1014.0 mb)
Winds: from the SSE (150 degrees) at 10 MPH (9 knots; 4.6 m/s)
Visibility: 5 miles ( 8 km)
Ceiling: at least 12,000 feet AGL
Clouds: few clouds at 2000 feet AGL
Weather: no significant weather observed at this time

Forecast for: VTSM (SAMUI , TH)
Text: TAF VTSM 201100Z 2012/2112 14006KT 9999 FEW020
Forecast period: 1200 UTC 20 March 2019 to 1200 UTC 21 March 2019
Forecast type: FROM: standard forecast or significant change
Winds: from the SE (140 degrees) at 7 MPH (6 knots; 3.1 m/s)
Visibility: 6 or more miles 10+ km)
Ceiling: at least 12,000 feet AGL
Clouds: few clouds at 2000 feet AGL
Weather: no significant weather forecast for this period